createdAt,value
2022-11-02T00:00:13.884Z,10.72
2022-11-02T00:01:25.486Z,10.70
2022-11-02T00:02:28.283Z,10.72
2022-11-02T00:03:30.928Z,10.72
2022-11-02T00:04:33.504Z,10.73
2022-11-02T00:05:36.331Z,10.70
2022-11-02T00:06:41.357Z,10.73
2022-11-02T00:07:43.976Z,10.73
2022-11-02T00:08:48.026Z,10.74
2022-11-02T00:09:50.593Z,10.73
2022-11-02T00:10:53.226Z,10.72
2022-11-02T00:11:56.176Z,10.74
2022-11-02T00:12:58.977Z,10.74
2022-11-02T00:14:01.965Z,10.74
2022-11-02T00:15:05.574Z,10.70
2022-11-02T00:16:12.949Z,10.70
2022-11-02T00:17:16.043Z,10.71
2022-11-02T00:18:18.697Z,10.70
2022-11-02T00:19:21.371Z,10.69
2022-11-02T00:20:24.212Z,10.71
2022-11-02T00:21:27.721Z,10.72
2022-11-02T00:22:30.805Z,10.71
2022-11-02T00:23:34.034Z,10.70
2022-11-02T00:24:36.883Z,10.67
2022-11-02T00:25:42.200Z,10.69
2022-11-02T00:26:44.874Z,10.66
2022-11-02T00:27:47.993Z,10.68
2022-11-02T00:28:50.763Z,10.68
2022-11-02T00:29:53.912Z,10.69
2022-11-02T00:30:56.832Z,10.69
2022-11-02T00:32:00.266Z,10.67
2022-11-02T00:33:03.886Z,10.68
2022-11-02T00:34:06.739Z,10.69
2022-11-02T00:35:10.437Z,10.70
2022-11-02T00:36:13.111Z,10.64
2022-11-02T00:37:15.946Z,10.70
2022-11-02T00:38:18.862Z,10.71
2022-11-02T00:39:21.510Z,10.70
2022-11-02T00:40:24.114Z,10.70
2022-11-02T00:41:27.011Z,10.70
2022-11-02T00:42:29.670Z,10.69
2022-11-02T00:43:33.340Z,10.65
2022-11-02T00:44:35.875Z,10.65
2022-11-02T00:45:38.475Z,10.66
2022-11-02T00:46:41.420Z,10.67
2022-11-02T00:47:44.094Z,10.67
2022-11-02T00:48:47.088Z,10.67
2022-11-02T00:49:49.698Z,10.67
2022-11-02T00:50:52.867Z,10.68
2022-11-02T00:51:56.747Z,10.64
2022-11-02T00:52:59.464Z,10.65
2022-11-02T00:54:02.773Z,10.66
2022-11-02T00:55:06.761Z,10.66
2022-11-02T00:56:09.551Z,10.64
2022-11-02T00:57:12.738Z,10.64
2022-11-02T00:58:15.475Z,10.63
2022-11-02T00:59:18.366Z,10.63
2022-11-02T01:00:21.142Z,10.64
2022-11-02T01:01:24.021Z,10.63
2022-11-02T01:02:27.279Z,10.60
2022-11-02T01:03:30.080Z,10.61
2022-11-02T01:04:33.129Z,10.60
2022-11-02T01:05:36.963Z,10.63
2022-11-02T01:06:39.583Z,10.61
2022-11-02T01:07:42.426Z,10.62
2022-11-02T01:08:45.052Z,10.59
2022-11-02T01:09:48.300Z,10.60
2022-11-02T01:10:51.104Z,10.59
2022-11-02T01:11:54.631Z,10.59
2022-11-02T01:12:57.368Z,10.58
2022-11-02T01:13:59.973Z,10.60
2022-11-02T01:15:03.506Z,10.58
2022-11-02T01:16:06.602Z,10.59
2022-11-02T01:17:09.257Z,10.58
2022-11-02T01:18:12.056Z,10.59
2022-11-02T01:19:14.955Z,10.59
2022-11-02T01:20:18.045Z,10.58
2022-11-02T01:21:21.424Z,10.58
2022-11-02T01:22:24.087Z,10.59
2022-11-02T01:23:27.133Z,10.58
2022-11-02T01:24:30.295Z,10.59
2022-11-02T01:25:33.201Z,10.59
2022-11-02T01:26:35.835Z,10.59
2022-11-02T01:27:38.480Z,10.56
2022-11-02T01:28:41.504Z,10.56
2022-11-02T01:29:44.220Z,10.58
2022-11-02T01:30:48.733Z,10.58
2022-11-02T01:31:53.728Z,10.56
2022-11-02T01:32:56.358Z,10.58
2022-11-02T01:33:59.027Z,10.57
2022-11-02T01:35:02.944Z,10.58
2022-11-02T01:36:07.424Z,10.57
2022-11-02T01:37:10.787Z,10.56
2022-11-02T01:38:14.489Z,10.58
2022-11-02T01:39:17.193Z,10.58
2022-11-02T01:40:19.859Z,10.59
2022-11-02T01:41:22.788Z,10.58
2022-11-02T01:42:28.077Z,10.55
2022-11-02T01:43:34.541Z,10.57
2022-11-02T01:44:37.204Z,10.56
2022-11-02T01:45:39.833Z,10.56
2022-11-02T01:46:47.075Z,10.56
2022-11-02T01:47:50.835Z,10.58
2022-11-02T01:49:05.284Z,10.57
2022-11-02T01:50:27.931Z,10.58
2022-11-02T01:51:35.229Z,10.57
2022-11-02T01:52:39.976Z,10.56
2022-11-02T01:53:45.966Z,10.56
2022-11-02T01:55:01.697Z,10.57
2022-11-02T01:56:05.694Z,10.56
2022-11-02T01:57:10.702Z,10.57
2022-11-02T01:58:13.736Z,10.57
2022-11-02T01:59:29.143Z,10.56
2022-11-02T02:00:31.909Z,10.55
2022-11-02T02:01:35.507Z,10.55
2022-11-02T02:02:51.306Z,10.55
2022-11-02T02:03:54.883Z,10.54
2022-11-02T02:05:09.046Z,10.55
2022-11-02T02:06:15.586Z,10.56
2022-11-02T02:07:20.421Z,10.54
2022-11-02T02:08:25.585Z,10.52
2022-11-02T02:09:29.940Z,10.54
2022-11-02T02:10:32.908Z,10.51
2022-11-02T02:11:40.394Z,10.54
2022-11-02T02:12:44.324Z,10.51
2022-11-02T02:13:47.782Z,10.54
2022-11-02T02:14:51.059Z,10.52
2022-11-02T02:16:19.058Z,10.50
2022-11-02T02:17:44.554Z,10.51
2022-11-02T02:18:59.985Z,10.51
2022-11-02T02:20:22.187Z,10.52
2022-11-02T02:21:31.549Z,10.52
2022-11-02T02:23:02.662Z,10.50
2022-11-02T02:24:23.406Z,10.51
2022-11-02T02:25:52.916Z,10.53
2022-11-02T02:27:16.225Z,10.55
2022-11-02T02:28:41.874Z,10.55
2022-11-02T02:30:05.864Z,10.55
2022-11-02T02:31:16.431Z,10.54
2022-11-02T02:32:36.843Z,10.54
2022-11-02T02:33:44.015Z,10.53
2022-11-02T02:34:55.210Z,10.51
2022-11-02T02:36:05.584Z,10.54
2022-11-02T02:37:17.092Z,10.55
2022-11-02T02:38:29.742Z,10.56
2022-11-02T02:39:52.088Z,10.58
2022-11-02T02:41:19.447Z,10.57
2022-11-02T02:42:24.106Z,10.57
2022-11-02T02:43:36.972Z,10.56
2022-11-02T02:44:50.272Z,10.56
2022-11-02T02:45:59.397Z,10.56
2022-11-02T02:47:23.491Z,10.55
2022-11-02T02:48:27.016Z,10.55
2022-11-02T02:49:45.004Z,10.54
2022-11-02T02:50:57.056Z,10.54
2022-11-02T02:52:00.536Z,10.52
2022-11-02T02:53:05.752Z,10.54
2022-11-02T02:54:15.128Z,10.54
2022-11-02T02:55:23.147Z,10.53
2022-11-02T02:56:30.863Z,10.54
2022-11-02T02:57:36.360Z,10.51
2022-11-02T02:58:47.902Z,10.47
2022-11-02T02:59:50.663Z,10.49
2022-11-02T03:00:55.215Z,10.47
2022-11-02T03:01:58.954Z,10.50
2022-11-02T03:03:04.746Z,10.52
2022-11-02T03:04:12.250Z,10.51
2022-11-02T03:05:26.010Z,10.50
2022-11-02T03:06:35.276Z,10.48
2022-11-02T03:07:39.078Z,10.48
2022-11-02T03:08:49.564Z,10.47
2022-11-02T03:10:14.302Z,10.48
2022-11-02T03:11:20.635Z,10.47
2022-11-02T03:12:29.830Z,10.48
2022-11-02T03:14:14.134Z,10.49
2022-11-02T03:15:22.944Z,10.48
2022-11-02T03:16:35.338Z,10.48
2022-11-02T03:18:03.330Z,10.46
2022-11-02T03:19:21.000Z,10.46
2022-11-02T03:20:29.542Z,10.48
2022-11-02T03:21:44.302Z,10.47
2022-11-02T03:23:28.957Z,10.48
2022-11-02T03:24:42.585Z,10.48
2022-11-02T03:25:59.100Z,10.48
2022-11-02T03:27:32.329Z,10.50
2022-11-02T03:28:47.139Z,10.50
2022-11-02T03:30:15.990Z,10.49
2022-11-02T03:31:36.600Z,10.49
2022-11-02T03:32:52.977Z,10.50
2022-11-02T03:34:20.076Z,10.51
2022-11-02T03:35:36.115Z,10.50
2022-11-02T03:36:49.678Z,10.49
2022-11-02T03:38:01.242Z,10.50
2022-11-02T03:39:09.109Z,10.49
2022-11-02T03:40:28.611Z,10.49
2022-11-02T03:41:33.166Z,10.48
2022-11-02T03:42:37.098Z,10.45
2022-11-02T03:43:41.921Z,10.45
2022-11-02T03:44:47.938Z,10.46
2022-11-02T03:45:55.261Z,10.48
2022-11-02T03:47:00.329Z,10.43
2022-11-02T03:48:08.752Z,10.48
2022-11-02T03:49:18.301Z,10.48
2022-11-02T03:50:23.622Z,10.49
2022-11-02T03:51:29.619Z,10.47
2022-11-02T03:52:37.363Z,10.52
2022-11-02T03:53:58.715Z,10.54
2022-11-02T03:55:07.835Z,10.54
2022-11-02T03:56:19.432Z,10.55
2022-11-02T03:57:27.838Z,10.55
2022-11-02T03:58:30.719Z,10.54
2022-11-02T03:59:33.510Z,10.55
2022-11-02T04:00:38.450Z,10.56
2022-11-02T04:01:46.989Z,10.56
2022-11-02T04:02:54.171Z,10.57
2022-11-02T04:03:57.132Z,10.55
2022-11-02T04:05:00.192Z,10.57
2022-11-02T04:06:03.595Z,10.55
2022-11-02T04:07:06.853Z,10.54
2022-11-02T04:08:21.978Z,10.52
2022-11-02T04:09:24.795Z,10.52
2022-11-02T04:10:28.080Z,10.55
2022-11-02T04:11:50.888Z,10.53
2022-11-02T04:13:12.424Z,10.54
2022-11-02T04:14:33.634Z,10.53
2022-11-02T04:15:36.381Z,10.54
2022-11-02T04:16:39.361Z,10.53
2022-11-02T04:18:01.515Z,10.53
2022-11-02T04:19:23.589Z,10.51
2022-11-02T04:20:26.807Z,10.53
2022-11-02T04:21:30.828Z,10.53
2022-11-02T04:22:52.704Z,10.54
2022-11-02T04:24:13.989Z,10.53
2022-11-02T04:25:19.408Z,10.54
2022-11-02T04:26:22.444Z,10.54
2022-11-02T04:27:25.887Z,10.54
2022-11-02T04:28:28.839Z,10.54
2022-11-02T04:29:31.960Z,10.55
2022-11-02T04:30:34.942Z,10.55
2022-11-02T04:31:37.641Z,10.56
2022-11-02T04:33:00.676Z,10.55
2022-11-02T04:34:03.512Z,10.53
2022-11-02T04:35:07.283Z,10.55
2022-11-02T04:36:10.582Z,10.55
2022-11-02T04:37:32.499Z,10.57
2022-11-02T04:38:43.278Z,10.53
2022-11-02T04:39:46.241Z,10.47
2022-11-02T04:40:51.117Z,10.48
2022-11-02T04:41:54.285Z,10.43
2022-11-02T04:42:57.308Z,10.45
2022-11-02T04:44:00.288Z,10.48
2022-11-02T04:45:02.976Z,10.49
2022-11-02T04:46:05.894Z,10.52
2022-11-02T04:47:09.224Z,10.54
2022-11-02T04:48:11.898Z,10.49
2022-11-02T04:49:14.788Z,10.50
2022-11-02T04:50:17.605Z,10.51
2022-11-02T04:51:21.909Z,10.53
2022-11-02T04:52:25.304Z,10.53
2022-11-02T04:53:27.895Z,10.51
2022-11-02T04:54:30.902Z,10.51
2022-11-02T04:55:35.497Z,10.50
2022-11-02T04:56:38.877Z,10.50
2022-11-02T04:57:45.587Z,10.52
2022-11-02T04:58:52.168Z,10.49
2022-11-02T04:59:55.326Z,10.52
2022-11-02T05:00:58.486Z,10.50
2022-11-02T05:02:01.217Z,10.50
2022-11-02T05:03:08.219Z,10.50
2022-11-02T05:04:14.431Z,10.51
2022-11-02T05:05:18.177Z,10.50
2022-11-02T05:06:22.915Z,10.50
2022-11-02T05:07:25.743Z,10.47
2022-11-02T05:08:28.718Z,10.42
2022-11-02T05:09:31.389Z,10.40
2022-11-02T05:10:34.017Z,10.42
2022-11-02T05:11:36.662Z,10.43
2022-11-02T05:12:39.445Z,10.45
2022-11-02T05:13:44.641Z,10.47
2022-11-02T05:14:47.480Z,10.45
2022-11-02T05:15:50.514Z,10.44
2022-11-02T05:16:53.734Z,10.45
2022-11-02T05:17:56.405Z,10.43
2022-11-02T05:18:59.441Z,10.42
2022-11-02T05:20:03.276Z,10.43
2022-11-02T05:21:06.117Z,10.42
2022-11-02T05:22:08.792Z,10.45
2022-11-02T05:23:11.449Z,10.46
2022-11-02T05:24:14.938Z,10.45
2022-11-02T05:25:18.032Z,10.44
2022-11-02T05:26:20.710Z,10.43
2022-11-02T05:27:23.762Z,10.43
2022-11-02T05:28:29.018Z,10.43
2022-11-02T05:29:32.388Z,10.43
2022-11-02T05:30:35.220Z,10.43
2022-11-02T05:31:37.910Z,10.44
2022-11-02T05:32:40.546Z,10.44
2022-11-02T05:33:43.197Z,10.47
2022-11-02T05:34:46.358Z,10.46
2022-11-02T05:35:49.929Z,10.45
2022-11-02T05:36:53.565Z,10.45
2022-11-02T05:37:56.343Z,10.46
2022-11-02T05:38:59.413Z,10.48
2022-11-02T05:40:02.638Z,10.50
2022-11-02T05:41:05.990Z,10.52
2022-11-02T05:42:08.952Z,10.54
2022-11-02T05:43:11.886Z,10.54
2022-11-02T05:44:14.828Z,10.52
2022-11-02T05:45:21.977Z,10.51
2022-11-02T05:46:27.479Z,10.52
2022-11-02T05:47:30.116Z,10.52
2022-11-02T05:48:33.725Z,10.52
2022-11-02T05:49:37.497Z,10.52
2022-11-02T05:50:40.408Z,10.50
2022-11-02T05:51:44.554Z,10.49
2022-11-02T05:52:51.268Z,10.52
2022-11-02T05:53:54.019Z,10.53
2022-11-02T05:54:56.568Z,10.52
2022-11-02T05:56:03.785Z,10.52
2022-11-02T05:57:07.010Z,10.51
2022-11-02T05:58:11.970Z,10.51
2022-11-02T05:59:14.754Z,10.50
2022-11-02T06:00:17.576Z,10.52
2022-11-02T06:01:23.963Z,10.51
2022-11-02T06:02:28.000Z,10.50
2022-11-02T06:03:32.117Z,10.50
2022-11-02T06:04:35.036Z,10.48
2022-11-02T06:05:37.798Z,10.49
2022-11-02T06:06:41.062Z,10.50
2022-11-02T06:07:44.033Z,10.25
2022-11-02T06:08:46.779Z,10.49
2022-11-02T06:09:49.402Z,10.49
2022-11-02T06:10:52.025Z,10.50
2022-11-02T06:11:56.225Z,10.50
2022-11-02T06:13:01.772Z,10.47
2022-11-02T06:14:04.631Z,10.50
2022-11-02T06:15:07.802Z,10.53
2022-11-02T06:16:12.660Z,10.50
2022-11-02T06:17:15.911Z,10.52
2022-11-02T06:18:19.988Z,10.53
2022-11-02T06:19:22.677Z,10.50
2022-11-02T06:20:25.326Z,10.49
2022-11-02T06:21:27.993Z,10.49
2022-11-02T06:22:30.945Z,10.52
2022-11-02T06:23:34.462Z,10.54
2022-11-02T06:24:37.116Z,10.54
2022-11-02T06:25:39.747Z,10.57
2022-11-02T06:26:43.051Z,10.57
2022-11-02T06:27:57.064Z,10.59
2022-11-02T06:28:59.979Z,10.56
2022-11-02T06:30:04.770Z,10.63
2022-11-02T06:31:07.732Z,10.65
2022-11-02T06:32:10.336Z,10.63
2022-11-02T06:33:13.824Z,10.67
2022-11-02T06:34:16.683Z,10.68
2022-11-02T06:35:23.685Z,10.69
2022-11-02T06:36:26.331Z,10.66
2022-11-02T06:37:33.845Z,10.68
2022-11-02T06:38:38.689Z,10.69
2022-11-02T06:39:41.391Z,10.71
2022-11-02T06:40:44.593Z,10.70
2022-11-02T06:41:47.169Z,10.69
2022-11-02T06:43:17.861Z,10.73
2022-11-02T06:44:20.971Z,10.71
2022-11-02T06:45:27.122Z,10.78
2022-11-02T06:46:29.800Z,10.77
2022-11-02T06:47:34.438Z,10.83
2022-11-02T06:48:37.127Z,10.87
2022-11-02T06:49:40.391Z,10.86
2022-11-02T06:50:43.163Z,10.89
2022-11-02T06:51:45.888Z,10.93
2022-11-02T06:52:48.940Z,10.95
2022-11-02T06:53:51.837Z,10.99
2022-11-02T06:54:55.867Z,11.05
2022-11-02T06:55:59.888Z,11.11
2022-11-02T06:57:02.587Z,11.20
2022-11-02T06:58:05.755Z,11.29
2022-11-02T06:59:09.347Z,11.36
2022-11-02T07:00:20.951Z,11.39
2022-11-02T07:01:26.791Z,11.48
2022-11-02T07:02:29.821Z,11.70
2022-11-02T07:03:33.526Z,11.78
2022-11-02T07:04:36.153Z,11.88
2022-11-02T07:05:39.130Z,11.99
2022-11-02T07:06:41.738Z,12.16
2022-11-02T07:07:44.369Z,12.36
2022-11-02T07:08:46.991Z,12.51
2022-11-02T07:09:49.818Z,12.40
2022-11-02T07:10:52.772Z,12.79
2022-11-02T07:11:55.396Z,12.98
2022-11-02T07:12:58.745Z,13.10
2022-11-02T07:14:01.373Z,13.12
2022-11-02T07:15:04.284Z,13.21
2022-11-02T07:16:07.319Z,13.33
2022-11-02T07:17:10.710Z,13.37
2022-11-02T07:18:14.269Z,13.29
2022-11-02T07:19:16.943Z,13.36
2022-11-02T07:20:20.261Z,13.42
2022-11-02T07:21:23.476Z,13.54
2022-11-02T07:22:26.140Z,13.42
2022-11-02T07:23:31.092Z,13.26
2022-11-02T07:24:33.726Z,13.27
2022-11-02T07:25:36.437Z,13.20
2022-11-02T07:26:39.383Z,13.12
2022-11-02T07:27:41.976Z,13.14
2022-11-02T07:28:46.272Z,12.93
2022-11-02T07:29:49.488Z,12.90
2022-11-02T07:30:54.360Z,12.91
2022-11-02T07:31:57.294Z,12.98
2022-11-02T07:33:00.045Z,13.02
2022-11-02T07:34:02.699Z,12.94
2022-11-02T07:35:06.995Z,13.05
2022-11-02T07:36:09.712Z,13.12
2022-11-02T07:37:12.574Z,13.18
2022-11-02T07:38:15.218Z,13.28
2022-11-02T07:39:19.014Z,13.35
2022-11-02T07:40:22.241Z,13.57
2022-11-02T07:41:25.063Z,14.01
2022-11-02T07:42:28.024Z,13.92
2022-11-02T07:43:32.557Z,14.25
2022-11-02T07:44:35.475Z,14.30
2022-11-02T07:45:38.093Z,14.23
2022-11-02T07:46:40.628Z,14.24
2022-11-02T07:47:48.471Z,14.07
2022-11-02T07:48:51.200Z,13.81
2022-11-02T07:49:53.853Z,13.80
2022-11-02T07:51:00.020Z,13.74
2022-11-02T07:52:02.655Z,13.83
2022-11-02T07:53:06.001Z,13.99
2022-11-02T07:54:09.449Z,13.91
2022-11-02T07:55:13.818Z,13.73
2022-11-02T07:56:16.750Z,13.72
2022-11-02T07:57:19.857Z,14.04
2022-11-02T07:58:27.045Z,14.15
2022-11-02T07:59:29.728Z,14.50
2022-11-02T08:00:34.599Z,14.25
2022-11-02T08:01:37.570Z,13.87
2022-11-02T08:02:40.606Z,13.93
2022-11-02T08:03:43.297Z,14.08
2022-11-02T08:04:45.889Z,14.05
2022-11-02T08:05:48.717Z,14.11
2022-11-02T08:06:51.904Z,14.00
2022-11-02T08:08:15.066Z,14.19
2022-11-02T08:09:17.676Z,14.42
2022-11-02T08:10:20.297Z,14.57
2022-11-02T08:11:22.968Z,14.59
2022-11-02T08:12:26.526Z,14.48
2022-11-02T08:13:32.680Z,14.43
2022-11-02T08:14:35.631Z,14.53
2022-11-02T08:15:38.542Z,14.56
2022-11-02T08:16:41.414Z,14.74
2022-11-02T08:17:44.329Z,14.88
2022-11-02T08:18:47.131Z,14.90
2022-11-02T08:19:49.794Z,15.04
2022-11-02T08:20:54.248Z,15.18
2022-11-02T08:21:58.680Z,15.24
2022-11-02T08:23:01.742Z,15.15
2022-11-02T08:24:04.675Z,15.23
2022-11-02T08:25:08.436Z,15.18
2022-11-02T08:26:11.274Z,15.10
2022-11-02T08:27:22.331Z,15.16
2022-11-02T08:28:28.095Z,15.46
2022-11-02T08:29:30.854Z,15.73
2022-11-02T08:30:34.149Z,15.80
2022-11-02T08:31:36.743Z,15.73
2022-11-02T08:32:39.401Z,15.74
2022-11-02T08:33:43.751Z,15.64
2022-11-02T08:34:49.607Z,15.82
2022-11-02T08:36:05.394Z,16.09
2022-11-02T08:37:09.914Z,16.08
2022-11-02T08:38:18.418Z,15.96
2022-11-02T08:39:21.580Z,15.92
2022-11-02T08:40:24.713Z,16.10
2022-11-02T08:41:27.629Z,16.05
2022-11-02T08:42:30.388Z,16.13
2022-11-02T08:43:33.027Z,16.30
2022-11-02T08:44:41.481Z,16.52
2022-11-02T08:46:14.492Z,16.62
2022-11-02T08:47:09.678Z,16.60
2022-11-02T08:48:12.752Z,16.39
2022-11-02T08:49:18.696Z,16.23
2022-11-02T08:50:23.203Z,16.15
2022-11-02T08:51:26.065Z,16.12
2022-11-02T08:52:28.783Z,16.06
2022-11-02T08:53:31.516Z,16.26
2022-11-02T08:54:34.221Z,16.43
2022-11-02T08:55:37.160Z,16.37
2022-11-02T08:56:40.117Z,16.09
2022-11-02T08:57:49.783Z,16.29
2022-11-02T08:58:52.468Z,16.23
2022-11-02T08:59:55.133Z,16.27
2022-11-02T09:00:58.148Z,16.47
2022-11-02T09:02:00.944Z,16.35
2022-11-02T09:03:06.392Z,16.57
2022-11-02T09:04:09.135Z,16.72
2022-11-02T09:05:11.937Z,16.98
2022-11-02T09:06:14.918Z,17.10
2022-11-02T09:07:17.580Z,17.26
2022-11-02T09:08:20.757Z,17.20
2022-11-02T09:09:23.611Z,17.39
2022-11-02T09:10:28.017Z,17.33
2022-11-02T09:11:31.330Z,17.43
2022-11-02T09:12:37.050Z,17.47
2022-11-02T09:13:39.817Z,17.68
2022-11-02T09:14:42.594Z,17.45
2022-11-02T09:15:45.257Z,17.37
2022-11-02T09:16:48.130Z,17.47
2022-11-02T09:17:51.185Z,17.74
2022-11-02T09:18:53.815Z,17.56
2022-11-02T09:19:56.544Z,17.44
2022-11-02T09:21:03.052Z,17.84
2022-11-02T09:22:05.999Z,17.88
2022-11-02T09:23:08.714Z,17.89
2022-11-02T09:24:11.372Z,17.95
2022-11-02T09:25:15.168Z,17.96
2022-11-02T09:26:17.905Z,17.58
2022-11-02T09:27:20.866Z,17.99
2022-11-02T09:28:23.594Z,17.94
2022-11-02T09:29:26.165Z,17.68
2022-11-02T09:30:29.183Z,17.37
2022-11-02T09:31:31.861Z,17.01
2022-11-02T09:32:34.831Z,16.83
2022-11-02T09:33:37.636Z,16.85
2022-11-02T09:34:40.657Z,17.17
2022-11-02T09:35:46.447Z,17.68
2022-11-02T09:36:49.016Z,17.96
2022-11-02T09:37:51.953Z,18.19
2022-11-02T09:38:54.567Z,18.35
2022-11-02T09:39:57.598Z,18.15
2022-11-02T09:41:00.157Z,18.47
2022-11-02T09:42:22.820Z,18.66
2022-11-02T09:43:30.970Z,18.97
2022-11-02T09:44:51.049Z,18.81
2022-11-02T09:46:06.618Z,18.78
2022-11-02T09:48:45.601Z,18.96
2022-11-02T09:49:48.973Z,18.79
2022-11-02T09:51:02.298Z,18.79
2022-11-02T09:52:07.733Z,18.69
2022-11-02T09:53:17.755Z,18.49
2022-11-02T09:54:29.714Z,18.07
2022-11-02T09:55:38.949Z,17.47
2022-11-02T09:56:43.000Z,16.97
2022-11-02T09:57:49.495Z,16.98
2022-11-02T09:59:00.337Z,16.82
2022-11-02T10:00:05.393Z,16.67
2022-11-02T10:01:44.330Z,16.40
2022-11-02T10:03:15.398Z,16.37
2022-11-02T10:04:48.801Z,16.03
2022-11-02T10:06:15.824Z,15.73
2022-11-02T10:07:24.683Z,15.38
2022-11-02T10:08:51.245Z,15.68
2022-11-02T10:10:03.566Z,15.55
2022-11-02T10:11:19.638Z,15.41
2022-11-02T10:12:47.894Z,15.15
2022-11-02T10:14:00.235Z,15.26
2022-11-02T10:15:11.238Z,16.18
2022-11-02T10:16:19.741Z,16.76
2022-11-02T10:17:26.591Z,17.31
2022-11-02T10:18:30.436Z,17.45
2022-11-02T10:19:37.161Z,17.26
2022-11-02T10:20:45.723Z,17.68
2022-11-02T10:21:52.717Z,17.99
2022-11-02T10:23:03.535Z,18.09
2022-11-02T10:24:18.555Z,18.24
2022-11-02T10:25:22.189Z,17.68
2022-11-02T10:26:29.250Z,17.77
2022-11-02T10:27:38.053Z,17.86
2022-11-02T10:28:44.445Z,17.89
2022-11-02T10:29:57.443Z,17.94
2022-11-02T10:31:02.588Z,18.36
2022-11-02T10:32:05.435Z,17.88
2022-11-02T10:33:15.186Z,18.38
2022-11-02T10:34:27.313Z,18.70
2022-11-02T10:36:16.307Z,17.92
2022-11-02T10:37:50.902Z,18.65
2022-11-02T10:39:05.307Z,18.84
2022-11-02T10:40:55.795Z,18.73
2022-11-02T10:42:04.263Z,18.63
2022-11-02T10:43:22.314Z,18.07
2022-11-02T10:44:36.628Z,18.61
2022-11-02T10:46:24.112Z,18.66
2022-11-02T10:47:33.399Z,18.66
2022-11-02T10:48:46.259Z,18.73
2022-11-02T10:50:30.439Z,18.45
2022-11-02T10:51:33.762Z,18.60
2022-11-02T10:52:39.789Z,18.53
2022-11-02T10:53:48.368Z,18.41
2022-11-02T10:54:51.906Z,18.58
2022-11-02T10:56:03.453Z,18.87
2022-11-02T10:57:13.975Z,19.06
2022-11-02T10:58:21.517Z,18.77
2022-11-02T10:59:24.554Z,19.13
2022-11-02T11:00:36.103Z,19.18
2022-11-02T11:01:46.936Z,18.62
2022-11-02T11:03:13.135Z,18.58
2022-11-02T11:04:30.021Z,18.75
2022-11-02T11:05:56.486Z,19.01
2022-11-02T11:07:06.617Z,18.47
2022-11-02T11:08:29.267Z,18.43
2022-11-02T11:09:52.929Z,18.12
2022-11-02T11:11:09.310Z,18.39
2022-11-02T11:12:23.557Z,18.17
2022-11-02T11:16:20.636Z,18.52
2022-11-02T11:20:35.801Z,19.13
2022-11-02T11:21:41.145Z,19.19
2022-11-02T11:22:43.782Z,18.99
2022-11-02T11:23:46.377Z,19.16
2022-11-02T11:24:49.118Z,19.36
2022-11-02T11:26:05.425Z,19.31
2022-11-02T11:27:08.254Z,19.50
2022-11-02T11:28:37.982Z,18.52
2022-11-02T11:29:46.938Z,19.00
2022-11-02T11:31:06.449Z,19.45
2022-11-02T11:32:28.664Z,19.14
2022-11-02T11:33:41.159Z,19.28
2022-11-02T11:34:47.122Z,19.06
2022-11-02T11:35:51.219Z,19.29
2022-11-02T11:37:08.856Z,19.62
2022-11-02T11:38:21.826Z,19.74
2022-11-02T11:39:28.456Z,19.25
2022-11-02T11:40:37.302Z,19.54
2022-11-02T11:41:41.553Z,19.49
2022-11-02T11:42:44.294Z,19.12
2022-11-02T11:43:49.217Z,19.04
2022-11-02T11:44:58.642Z,19.55
2022-11-02T11:46:07.457Z,18.88
2022-11-02T11:47:12.030Z,18.70
2022-11-02T11:48:40.030Z,18.95
2022-11-02T11:50:11.771Z,19.31
2022-11-02T11:51:45.246Z,18.76
2022-11-02T11:53:07.053Z,18.69
2022-11-02T11:54:27.504Z,18.44
2022-11-02T11:55:32.157Z,18.86
2022-11-02T11:56:35.281Z,19.01
2022-11-02T11:58:51.785Z,19.19
2022-11-02T11:59:58.871Z,19.45
2022-11-02T12:01:10.502Z,19.11
2022-11-02T12:02:28.106Z,19.39
2022-11-02T12:03:31.174Z,19.10
2022-11-02T12:04:37.596Z,18.90
2022-11-02T12:06:09.686Z,18.84
2022-11-02T12:07:30.165Z,18.90
2022-11-02T12:08:45.257Z,19.05
2022-11-02T12:10:05.402Z,18.48
2022-11-02T12:11:14.925Z,18.47
2022-11-02T12:12:52.306Z,19.01
2022-11-02T12:14:06.770Z,18.45
2022-11-02T12:15:34.322Z,18.73
2022-11-02T12:22:43.088Z,18.23
2022-11-02T12:24:11.349Z,18.11
2022-11-02T12:25:54.780Z,18.61
2022-11-02T12:27:22.120Z,18.85
2022-11-02T12:29:03.985Z,19.02
2022-11-02T12:30:21.974Z,19.03
2022-11-02T12:31:46.006Z,19.23
2022-11-02T12:33:17.375Z,19.15
2022-11-02T12:35:02.954Z,19.22
2022-11-02T12:36:17.607Z,18.50
2022-11-02T12:37:57.864Z,18.24
2022-11-02T12:39:04.545Z,18.33
2022-11-02T12:40:11.349Z,18.03
2022-11-02T12:41:32.400Z,17.90
2022-11-02T12:42:43.753Z,17.74
2022-11-02T12:43:54.966Z,17.57
2022-11-02T12:45:22.457Z,17.70
2022-11-02T12:46:49.076Z,18.09
2022-11-02T12:47:59.195Z,18.57
2022-11-02T12:49:13.874Z,18.61
2022-11-02T12:50:28.583Z,18.69
2022-11-02T12:51:44.814Z,18.02
2022-11-02T12:52:47.405Z,18.17
2022-11-02T12:54:06.392Z,17.99
2022-11-02T12:55:38.515Z,17.77
2022-11-02T12:56:50.926Z,17.98
2022-11-02T12:58:01.481Z,18.10
2022-11-02T12:59:05.455Z,18.27
2022-11-02T13:00:25.172Z,17.72
2022-11-02T13:01:41.239Z,17.92
2022-11-02T13:02:46.637Z,17.91
2022-11-02T13:04:12.572Z,17.76
2022-11-02T13:05:21.430Z,17.73
2022-11-02T13:06:32.125Z,17.82
2022-11-02T13:07:41.436Z,17.65
2022-11-02T13:08:53.199Z,18.03
2022-11-02T13:10:15.560Z,18.13
2022-11-02T13:11:34.195Z,17.69
2022-11-02T13:12:38.059Z,17.51
2022-11-02T13:13:51.006Z,17.40
2022-11-02T13:14:56.782Z,17.40
2022-11-02T13:16:01.231Z,17.51
2022-11-02T13:17:38.181Z,17.60
2022-11-02T13:18:50.287Z,17.75
2022-11-02T13:19:57.694Z,17.62
2022-11-02T13:21:04.232Z,17.49
2022-11-02T13:22:10.725Z,17.33
2022-11-02T13:23:39.831Z,17.16
2022-11-02T13:24:53.482Z,17.29
2022-11-02T13:26:03.647Z,17.25
2022-11-02T13:27:21.807Z,17.25
2022-11-02T13:28:39.664Z,17.44
2022-11-02T13:29:48.780Z,17.62
2022-11-02T13:30:53.005Z,17.36
2022-11-02T13:32:01.158Z,17.21
2022-11-02T13:33:12.707Z,16.96
2022-11-02T13:34:22.664Z,16.81
2022-11-02T13:35:35.603Z,16.70
2022-11-02T13:36:40.066Z,16.59
2022-11-02T13:37:48.419Z,16.70
2022-11-02T13:39:04.578Z,16.95
2022-11-02T13:40:24.398Z,17.04
2022-11-02T13:41:47.827Z,16.93
2022-11-02T13:43:15.517Z,16.89
2022-11-02T13:44:36.017Z,16.83
2022-11-02T13:45:52.139Z,16.74
2022-11-02T13:47:13.225Z,16.77
2022-11-02T13:48:44.801Z,16.69
2022-11-02T13:49:54.337Z,16.56
2022-11-02T13:51:03.971Z,16.31
2022-11-02T13:52:15.079Z,16.30
2022-11-02T13:53:27.723Z,16.18
2022-11-02T13:54:42.243Z,16.11
2022-11-02T13:55:54.530Z,16.10
2022-11-02T13:56:59.013Z,16.11
2022-11-02T13:58:01.880Z,16.05
2022-11-02T13:59:09.328Z,15.97
2022-11-02T14:00:24.376Z,16.08
2022-11-02T14:01:30.331Z,16.10
2022-11-02T14:02:40.552Z,16.11
2022-11-02T14:04:05.287Z,16.01
2022-11-02T14:05:08.622Z,15.92
2022-11-02T14:06:14.463Z,15.92
2022-11-02T14:07:23.570Z,15.86
2022-11-02T14:08:33.144Z,15.81
2022-11-02T14:09:44.797Z,15.81
2022-11-02T14:11:21.562Z,15.79
2022-11-02T14:12:24.522Z,15.74
2022-11-02T14:13:51.927Z,15.72
2022-11-02T14:15:12.682Z,15.60
2022-11-02T14:16:45.071Z,15.49
2022-11-02T14:17:54.097Z,15.47
2022-11-02T14:19:19.471Z,15.47
2022-11-02T14:20:36.383Z,15.45
2022-11-02T14:21:50.924Z,15.44
2022-11-02T14:23:12.015Z,15.39
2022-11-02T14:24:32.629Z,15.38
2022-11-02T14:25:56.576Z,15.34
2022-11-02T14:31:04.104Z,15.17
2022-11-02T14:32:17.612Z,15.14
2022-11-02T14:33:38.552Z,15.09
2022-11-02T14:35:08.371Z,15.11
2022-11-02T14:36:16.700Z,15.14
2022-11-02T14:38:00.920Z,15.07
2022-11-02T14:39:19.078Z,14.99
2022-11-02T14:40:27.555Z,14.92
2022-11-02T14:42:02.056Z,14.90
2022-11-02T14:43:08.151Z,14.88
2022-11-02T14:44:26.115Z,14.82
2022-11-02T14:45:35.563Z,14.74
2022-11-02T14:46:59.065Z,14.74
2022-11-02T14:48:05.588Z,14.71
2022-11-02T14:49:31.055Z,14.67
2022-11-02T14:50:34.049Z,14.66
2022-11-02T14:51:38.140Z,14.61
2022-11-02T14:52:52.688Z,14.59
2022-11-02T14:54:02.984Z,14.58
2022-11-02T14:55:33.750Z,14.56
2022-11-02T14:57:04.085Z,14.52
2022-11-02T14:58:18.193Z,14.47
2022-11-02T14:59:29.698Z,14.48
2022-11-02T15:00:48.245Z,14.45
2022-11-02T15:01:55.936Z,14.45
2022-11-02T15:02:59.075Z,14.43
2022-11-02T15:04:08.086Z,14.38